sensor_id;sensor_type;location;lat;lon;timestamp;P1;durP1;ratioP1;P2;durP2;ratioP2
1505;SDS011;744;51.436;7.356;2023-04-01T00:01:12;2.27;;;0.70;;
1505;SDS011;744;51.436;7.356;2023-04-01T00:03:43;2.13;;;0.93;;
1505;SDS011;744;51.436;7.356;2023-04-01T00:06:12;2.17;;;0.70;;
1505;SDS011;744;51.436;7.356;2023-04-01T00:08:40;1.43;;;0.50;;
1505;SDS011;744;51.436;7.356;2023-04-01T00:11:07;1.20;;;0.50;;
1505;SDS011;744;51.436;7.356;2023-04-01T00:13:34;1.53;;;0.77;;
1505;SDS011;744;51.436;7.356;2023-04-01T00:16:00;2.30;;;0.70;;
1505;SDS011;744;51.436;7.356;2023-04-01T00:18:34;3.67;;;0.70;;
1505;SDS011;744;51.436;7.356;2023-04-01T00:21:01;2.30;;;0.77;;
1505;SDS011;744;51.436;7.356;2023-04-01T00:23:28;2.73;;;0.80;;
1505;SDS011;744;51.436;7.356;2023-04-01T00:25:55;0.80;;;0.70;;
1505;SDS011;744;51.436;7.356;2023-04-01T00:28:21;2.23;;;0.90;;
1505;SDS011;744;51.436;7.356;2023-04-01T00:30:48;5.60;;;0.80;;
1505;SDS011;744;51.436;7.356;2023-04-01T00:33:15;0.93;;;0.50;;
1505;SDS011;744;51.436;7.356;2023-04-01T00:35:42;4.60;;;0.70;;
1505;SDS011;744;51.436;7.356;2023-04-01T00:38:10;1.57;;;0.77;;
1505;SDS011;744;51.436;7.356;2023-04-01T00:40:38;2.30;;;0.80;;
1505;SDS011;744;51.436;7.356;2023-04-01T00:43:11;0.90;;;0.50;;
1505;SDS011;744;51.436;7.356;2023-04-01T00:45:49;3.70;;;0.90;;
1505;SDS011;744;51.436;7.356;2023-04-01T00:48:17;0.77;;;0.40;;
1505;SDS011;744;51.436;7.356;2023-04-01T00:50:50;2.40;;;0.90;;
1505;SDS011;744;51.436;7.356;2023-04-01T00:53:20;1.40;;;0.70;;
1505;SDS011;744;51.436;7.356;2023-04-01T00:55:50;1.20;;;0.73;;
1505;SDS011;744;51.436;7.356;2023-04-01T00:58:21;0.60;;;0.60;;
1505;SDS011;744;51.436;7.356;2023-04-01T01:00:50;0.70;;;0.70;;
1505;SDS011;744;51.436;7.356;2023-04-01T01:03:18;0.63;;;0.53;;
1505;SDS011;744;51.436;7.356;2023-04-01T01:06:29;0.50;;;0.50;;
1505;SDS011;744;51.436;7.356;2023-04-01T01:11:37;3.70;;;0.63;;
1505;SDS011;744;51.436;7.356;2023-04-01T01:14:11;1.13;;;0.50;;
1505;SDS011;744;51.436;7.356;2023-04-01T01:16:45;1.07;;;0.50;;
1505;SDS011;744;51.436;7.356;2023-04-01T01:27:47;0.60;;;0.50;;
1505;SDS011;744;51.436;7.356;2023-04-01T01:33:13;0.80;;;0.60;;
1505;SDS011;744;51.436;7.356;2023-04-01T01:35:58;1.90;;;0.60;;
1505;SDS011;744;51.436;7.356;2023-04-01T01:38:29;0.87;;;0.50;;
1505;SDS011;744;51.436;7.356;2023-04-01T01:40:59;1.53;;;0.73;;
1505;SDS011;744;51.436;7.356;2023-04-01T01:43:30;1.33;;;0.77;;
1505;SDS011;744;51.436;7.356;2023-04-01T01:46:02;0.50;;;0.50;;
1505;SDS011;744;51.436;7.356;2023-04-01T01:48:35;0.57;;;0.57;;
1505;SDS011;744;51.436;7.356;2023-04-01T01:51:04;2.90;;;0.43;;
1505;SDS011;744;51.436;7.356;2023-04-01T01:53:32;2.00;;;0.60;;
1505;SDS011;744;51.436;7.356;2023-04-01T01:55:59;0.90;;;0.57;;
1505;SDS011;744;51.436;7.356;2023-04-01T01:58:30;0.47;;;0.43;;
1505;SDS011;744;51.436;7.356;2023-04-01T02:01:02;0.70;;;0.70;;
1505;SDS011;744;51.436;7.356;2023-04-01T02:03:33;1.90;;;0.60;;
1505;SDS011;744;51.436;7.356;2023-04-01T02:06:04;1.63;;;1.00;;
1505;SDS011;744;51.436;7.356;2023-04-01T02:08:35;1.17;;;0.57;;
1505;SDS011;744;51.436;7.356;2023-04-01T02:11:06;1.37;;;0.53;;
1505;SDS011;744;51.436;7.356;2023-04-01T02:13:45;1.37;;;0.40;;
1505;SDS011;744;51.436;7.356;2023-04-01T02:16:26;1.77;;;0.50;;
1505;SDS011;744;51.436;7.356;2023-04-01T02:18:57;0.80;;;0.50;;
1505;SDS011;744;51.436;7.356;2023-04-01T02:21:28;2.07;;;0.60;;
1505;SDS011;744;51.436;7.356;2023-04-01T02:23:57;2.10;;;0.67;;
1505;SDS011;744;51.436;7.356;2023-04-01T02:26:27;1.53;;;0.53;;
1505;SDS011;744;51.436;7.356;2023-04-01T02:28:54;1.43;;;0.50;;
1505;SDS011;744;51.436;7.356;2023-04-01T02:31:22;0.90;;;0.30;;
1505;SDS011;744;51.436;7.356;2023-04-01T02:33:50;0.77;;;0.43;;
1505;SDS011;744;51.436;7.356;2023-04-01T02:36:18;1.37;;;0.77;;
1505;SDS011;744;51.436;7.356;2023-04-01T02:38:45;1.37;;;0.70;;
1505;SDS011;744;51.436;7.356;2023-04-01T02:41:14;1.03;;;0.60;;
1505;SDS011;744;51.436;7.356;2023-04-01T02:43:41;1.70;;;0.73;;
1505;SDS011;744;51.436;7.356;2023-04-01T02:46:08;0.43;;;0.30;;
1505;SDS011;744;51.436;7.356;2023-04-01T02:48:35;1.20;;;0.97;;
1505;SDS011;744;51.436;7.356;2023-04-01T02:51:01;0.80;;;0.27;;
1505;SDS011;744;51.436;7.356;2023-04-01T02:53:28;2.47;;;0.40;;
1505;SDS011;744;51.436;7.356;2023-04-01T02:55:55;0.80;;;0.43;;
1505;SDS011;744;51.436;7.356;2023-04-01T02:58:22;0.40;;;0.20;;
1505;SDS011;744;51.436;7.356;2023-04-01T03:00:49;1.67;;;0.40;;
1505;SDS011;744;51.436;7.356;2023-04-01T03:03:15;0.73;;;0.40;;
1505;SDS011;744;51.436;7.356;2023-04-01T03:05:42;1.87;;;0.43;;
1505;SDS011;744;51.436;7.356;2023-04-01T03:08:09;1.00;;;0.50;;
1505;SDS011;744;51.436;7.356;2023-04-01T03:10:36;0.60;;;0.20;;
1505;SDS011;744;51.436;7.356;2023-04-01T03:13:03;0.43;;;0.43;;
1505;SDS011;744;51.436;7.356;2023-04-01T03:15:30;1.37;;;0.47;;
1505;SDS011;744;51.436;7.356;2023-04-01T03:17:57;0.30;;;0.30;;
1505;SDS011;744;51.436;7.356;2023-04-01T03:20:24;1.03;;;0.40;;
1505;SDS011;744;51.436;7.356;2023-04-01T03:22:51;0.50;;;0.30;;
1505;SDS011;744;51.436;7.356;2023-04-01T03:25:18;0.40;;;0.30;;
1505;SDS011;744;51.436;7.356;2023-04-01T03:27:44;0.50;;;0.40;;
1505;SDS011;744;51.436;7.356;2023-04-01T03:30:11;0.93;;;0.50;;
1505;SDS011;744;51.436;7.356;2023-04-01T03:32:38;0.40;;;0.30;;
1505;SDS011;744;51.436;7.356;2023-04-01T03:35:05;0.50;;;0.30;;
1505;SDS011;744;51.436;7.356;2023-04-01T03:37:32;1.03;;;0.50;;
1505;SDS011;744;51.436;7.356;2023-04-01T03:39:59;0.47;;;0.40;;
1505;SDS011;744;51.436;7.356;2023-04-01T03:42:26;0.53;;;0.30;;
1505;SDS011;744;51.436;7.356;2023-04-01T03:44:52;1.07;;;0.40;;
1505;SDS011;744;51.436;7.356;2023-04-01T03:47:19;0.50;;;0.50;;
1505;SDS011;744;51.436;7.356;2023-04-01T03:49:46;1.03;;;0.30;;
1505;SDS011;744;51.436;7.356;2023-04-01T03:52:13;0.70;;;0.30;;
1505;SDS011;744;51.436;7.356;2023-04-01T03:54:39;0.50;;;0.33;;
1505;SDS011;744;51.436;7.356;2023-04-01T03:57:06;0.50;;;0.40;;
1505;SDS011;744;51.436;7.356;2023-04-01T03:59:33;0.40;;;0.20;;
1505;SDS011;744;51.436;7.356;2023-04-01T04:02:00;0.47;;;0.30;;
1505;SDS011;744;51.436;7.356;2023-04-01T04:04:27;1.33;;;0.37;;
1505;SDS011;744;51.436;7.356;2023-04-01T04:06:54;0.40;;;0.20;;
1505;SDS011;744;51.436;7.356;2023-04-01T04:09:21;1.13;;;0.50;;
1505;SDS011;744;51.436;7.356;2023-04-01T04:11:48;0.70;;;0.50;;
1505;SDS011;744;51.436;7.356;2023-04-01T04:14:15;0.40;;;0.20;;
1505;SDS011;744;51.436;7.356;2023-04-01T04:16:42;0.50;;;0.40;;
1505;SDS011;744;51.436;7.356;2023-04-01T04:19:09;0.70;;;0.40;;
1505;SDS011;744;51.436;7.356;2023-04-01T04:21:35;0.93;;;0.63;;
1505;SDS011;744;51.436;7.356;2023-04-01T04:24:02;1.07;;;0.40;;
1505;SDS011;744;51.436;7.356;2023-04-01T04:26:29;1.53;;;0.47;;
1505;SDS011;744;51.436;7.356;2023-04-01T04:28:56;0.43;;;0.37;;
1505;SDS011;744;51.436;7.356;2023-04-01T04:31:23;0.87;;;0.53;;
1505;SDS011;744;51.436;7.356;2023-04-01T04:33:51;1.20;;;0.50;;
1505;SDS011;744;51.436;7.356;2023-04-01T04:36:18;1.00;;;0.80;;
1505;SDS011;744;51.436;7.356;2023-04-01T04:38:47;0.50;;;0.50;;
1505;SDS011;744;51.436;7.356;2023-04-01T04:41:14;1.73;;;0.83;;
1505;SDS011;744;51.436;7.356;2023-04-01T04:43:48;0.77;;;0.77;;
1505;SDS011;744;51.436;7.356;2023-04-01T04:46:20;0.70;;;0.70;;
1505;SDS011;744;51.436;7.356;2023-04-01T04:48:47;0.70;;;0.70;;
1505;SDS011;744;51.436;7.356;2023-04-01T04:51:15;1.00;;;0.80;;
1505;SDS011;744;51.436;7.356;2023-04-01T04:53:43;1.43;;;0.60;;
1505;SDS011;744;51.436;7.356;2023-04-01T04:56:11;0.70;;;0.70;;
1505;SDS011;744;51.436;7.356;2023-04-01T04:58:39;1.77;;;0.77;;
1505;SDS011;744;51.436;7.356;2023-04-01T05:01:07;0.73;;;0.73;;
1505;SDS011;744;51.436;7.356;2023-04-01T05:03:36;1.43;;;0.70;;
1505;SDS011;744;51.436;7.356;2023-04-01T05:06:04;0.93;;;0.70;;
1505;SDS011;744;51.436;7.356;2023-04-01T05:08:31;1.13;;;0.70;;
1505;SDS011;744;51.436;7.356;2023-04-01T05:10:59;1.47;;;0.70;;
1505;SDS011;744;51.436;7.356;2023-04-01T05:13:27;1.53;;;0.70;;
1505;SDS011;744;51.436;7.356;2023-04-01T05:15:54;0.80;;;0.60;;
1505;SDS011;744;51.436;7.356;2023-04-01T05:18:21;0.80;;;0.80;;
1505;SDS011;744;51.436;7.356;2023-04-01T05:20:52;2.73;;;0.60;;
1505;SDS011;744;51.436;7.356;2023-04-01T05:23:21;0.80;;;0.60;;
1505;SDS011;744;51.436;7.356;2023-04-01T05:25:48;0.50;;;0.47;;
1505;SDS011;744;51.436;7.356;2023-04-01T05:28:17;1.13;;;1.10;;
1505;SDS011;744;51.436;7.356;2023-04-01T05:30:43;1.43;;;0.60;;
1505;SDS011;744;51.436;7.356;2023-04-01T05:33:10;1.80;;;0.60;;
1505;SDS011;744;51.436;7.356;2023-04-01T05:35:39;0.47;;;0.47;;
1505;SDS011;744;51.436;7.356;2023-04-01T05:38:07;4.50;;;0.57;;
1505;SDS011;744;51.436;7.356;2023-04-01T05:40:34;1.20;;;0.60;;
1505;SDS011;744;51.436;7.356;2023-04-01T05:43:00;2.73;;;0.60;;
1505;SDS011;744;51.436;7.356;2023-04-01T05:45:27;1.17;;;0.60;;
1505;SDS011;744;51.436;7.356;2023-04-01T05:47:54;1.73;;;0.77;;
1505;SDS011;744;51.436;7.356;2023-04-01T05:50:21;0.60;;;0.50;;
1505;SDS011;744;51.436;7.356;2023-04-01T05:52:48;3.73;;;0.90;;
1505;SDS011;744;51.436;7.356;2023-04-01T05:55:15;0.90;;;0.80;;
1505;SDS011;744;51.436;7.356;2023-04-01T05:57:42;0.47;;;0.37;;
1505;SDS011;744;51.436;7.356;2023-04-01T06:00:11;0.70;;;0.70;;
1505;SDS011;744;51.436;7.356;2023-04-01T06:02:38;0.40;;;0.40;;
1505;SDS011;744;51.436;7.356;2023-04-01T06:07:46;0.60;;;0.50;;
1505;SDS011;744;51.436;7.356;2023-04-01T06:10:14;3.13;;;0.83;;
1505;SDS011;744;51.436;7.356;2023-04-01T06:15:33;0.73;;;0.70;;
1505;SDS011;744;51.436;7.356;2023-04-01T06:21:22;2.10;;;0.83;;
1505;SDS011;744;51.436;7.356;2023-04-01T06:26:40;0.30;;;0.30;;
1505;SDS011;744;51.436;7.356;2023-04-01T06:29:28;0.40;;;0.30;;
1505;SDS011;744;51.436;7.356;2023-04-01T06:40:21;0.60;;;0.30;;
1505;SDS011;744;51.436;7.356;2023-04-01T06:46:15;0.53;;;0.53;;
1505;SDS011;744;51.436;7.356;2023-04-01T06:54:10;0.50;;;0.40;;
1505;SDS011;744;51.436;7.356;2023-04-01T06:56:43;0.53;;;0.53;;
1505;SDS011;744;51.436;7.356;2023-04-01T06:59:15;1.80;;;0.40;;
1505;SDS011;744;51.436;7.356;2023-04-01T07:01:47;0.70;;;0.60;;
1505;SDS011;744;51.436;7.356;2023-04-01T07:04:20;0.90;;;0.60;;
1505;SDS011;744;51.436;7.356;2023-04-01T07:06:58;0.80;;;0.50;;
1505;SDS011;744;51.436;7.356;2023-04-01T07:09:33;0.40;;;0.40;;
1505;SDS011;744;51.436;7.356;2023-04-01T07:12:06;0.70;;;0.63;;
1505;SDS011;744;51.436;7.356;2023-04-01T07:14:41;0.70;;;0.60;;
1505;SDS011;744;51.436;7.356;2023-04-01T07:17:43;1.47;;;0.57;;
1505;SDS011;744;51.436;7.356;2023-04-01T07:20:10;0.50;;;0.50;;
1505;SDS011;744;51.436;7.356;2023-04-01T07:22:43;2.83;;;0.70;;
1505;SDS011;744;51.436;7.356;2023-04-01T07:28:02;0.60;;;0.50;;
1505;SDS011;744;51.436;7.356;2023-04-01T07:30:38;0.97;;;0.87;;
1505;SDS011;744;51.436;7.356;2023-04-01T07:33:33;0.50;;;0.40;;
1505;SDS011;744;51.436;7.356;2023-04-01T07:36:23;0.77;;;0.70;;
1505;SDS011;744;51.436;7.356;2023-04-01T07:44:25;1.43;;;0.93;;
1505;SDS011;744;51.436;7.356;2023-04-01T07:50:03;0.67;;;0.57;;
1505;SDS011;744;51.436;7.356;2023-04-01T07:52:56;0.50;;;0.50;;
1505;SDS011;744;51.436;7.356;2023-04-01T08:04:11;0.53;;;0.53;;
1505;SDS011;744;51.436;7.356;2023-04-01T08:07:07;0.90;;;0.87;;
1505;SDS011;744;51.436;7.356;2023-04-01T08:10:43;0.73;;;0.73;;
1505;SDS011;744;51.436;7.356;2023-04-01T08:13:05;0.60;;;0.40;;
1505;SDS011;744;51.436;7.356;2023-04-01T08:21:14;0.77;;;0.63;;
1505;SDS011;744;51.436;7.356;2023-04-01T08:23:48;0.90;;;0.40;;
1505;SDS011;744;51.436;7.356;2023-04-01T08:28:59;2.13;;;0.77;;
1505;SDS011;744;51.436;7.356;2023-04-01T08:31:55;0.90;;;0.77;;
1505;SDS011;744;51.436;7.356;2023-04-01T08:34:37;0.80;;;0.50;;
1505;SDS011;744;51.436;7.356;2023-04-01T08:37:23;3.07;;;0.70;;
1505;SDS011;744;51.436;7.356;2023-04-01T08:43:04;1.53;;;0.87;;
1505;SDS011;744;51.436;7.356;2023-04-01T08:51:37;0.70;;;0.57;;
1505;SDS011;744;51.436;7.356;2023-04-01T08:54:06;0.80;;;0.80;;
1505;SDS011;744;51.436;7.356;2023-04-01T08:56:59;1.80;;;0.70;;
1505;SDS011;744;51.436;7.356;2023-04-01T09:08:21;0.90;;;0.90;;
1505;SDS011;744;51.436;7.356;2023-04-01T09:11:49;2.17;;;1.13;;
1505;SDS011;744;51.436;7.356;2023-04-01T09:22:50;1.07;;;0.90;;
1505;SDS011;744;51.436;7.356;2023-04-01T09:28:55;1.03;;;0.73;;
1505;SDS011;744;51.436;7.356;2023-04-01T09:37:13;0.90;;;0.90;;
1505;SDS011;744;51.436;7.356;2023-04-01T09:40:31;1.10;;;1.00;;
1505;SDS011;744;51.436;7.356;2023-04-01T10:20:41;3.10;;;2.80;;
1505;SDS011;744;51.436;7.356;2023-04-01T10:26:28;3.20;;;3.00;;
1505;SDS011;744;51.436;7.356;2023-04-01T10:58:20;3.10;;;2.80;;
1505;SDS011;744;51.436;7.356;2023-04-01T11:00:26;1.97;;;1.77;;
1505;SDS011;744;51.436;7.356;2023-04-01T11:06:01;3.00;;;2.80;;
1505;SDS011;744;51.436;7.356;2023-04-01T11:12:09;2.20;;;2.10;;
1505;SDS011;744;51.436;7.356;2023-04-01T11:14:59;3.07;;;2.20;;
1505;SDS011;744;51.436;7.356;2023-04-01T11:18:01;3.60;;;2.60;;
1505;SDS011;744;51.436;7.356;2023-04-01T11:26:33;2.63;;;2.43;;
1505;SDS011;744;51.436;7.356;2023-04-01T11:40:59;1.70;;;1.60;;
1505;SDS011;744;51.436;7.356;2023-04-01T11:43:57;2.70;;;2.43;;
1505;SDS011;744;51.436;7.356;2023-04-01T11:55:25;2.37;;;2.17;;
1505;SDS011;744;51.436;7.356;2023-04-01T12:04:00;1.80;;;1.70;;
1505;SDS011;744;51.436;7.356;2023-04-01T12:09:43;2.67;;;2.47;;
1505;SDS011;744;51.436;7.356;2023-04-01T12:12:29;3.00;;;2.37;;
1505;SDS011;744;51.436;7.356;2023-04-01T12:15:27;2.80;;;2.60;;
1505;SDS011;744;51.436;7.356;2023-04-01T12:26:23;2.50;;;2.30;;
1505;SDS011;744;51.436;7.356;2023-04-01T12:31:43;2.00;;;1.87;;
1505;SDS011;744;51.436;7.356;2023-04-01T12:34:41;1.73;;;1.63;;
1505;SDS011;744;51.436;7.356;2023-04-01T12:46:41;2.83;;;2.50;;
1505;SDS011;744;51.436;7.356;2023-04-01T13:00:54;2.10;;;1.97;;
1505;SDS011;744;51.436;7.356;2023-04-01T13:03:41;2.20;;;2.10;;
1505;SDS011;744;51.436;7.356;2023-04-01T13:06:18;3.10;;;1.90;;
1505;SDS011;744;51.436;7.356;2023-04-01T13:09:15;2.03;;;1.93;;
1505;SDS011;744;51.436;7.356;2023-04-01T13:25:51;3.30;;;3.10;;
1505;SDS011;744;51.436;7.356;2023-04-01T13:40:24;9.70;;;4.63;;
1505;SDS011;744;51.436;7.356;2023-04-01T13:43:41;7.70;;;5.97;;
1505;SDS011;744;51.436;7.356;2023-04-01T13:52:09;4.30;;;3.70;;
1505;SDS011;744;51.436;7.356;2023-04-01T13:55:21;4.77;;;4.37;;
1505;SDS011;744;51.436;7.356;2023-04-01T13:58:11;3.97;;;3.57;;
1505;SDS011;744;51.436;7.356;2023-04-01T14:01:15;3.90;;;3.27;;
1505;SDS011;744;51.436;7.356;2023-04-01T14:03:53;4.07;;;3.77;;
1505;SDS011;744;51.436;7.356;2023-04-01T14:06:44;4.43;;;3.30;;
1505;SDS011;744;51.436;7.356;2023-04-01T14:13:11;3.90;;;3.00;;
1505;SDS011;744;51.436;7.356;2023-04-01T14:15:52;2.47;;;2.37;;
1505;SDS011;744;51.436;7.356;2023-04-01T14:24:04;2.90;;;2.70;;
1505;SDS011;744;51.436;7.356;2023-04-01T14:26:57;2.70;;;2.50;;
1505;SDS011;744;51.436;7.356;2023-04-01T14:29:55;2.30;;;2.10;;
1505;SDS011;744;51.436;7.356;2023-04-01T14:40:52;2.20;;;2.10;;
1505;SDS011;744;51.436;7.356;2023-04-01T14:46:06;2.80;;;2.60;;
1505;SDS011;744;51.436;7.356;2023-04-01T14:53:59;2.57;;;2.37;;
1505;SDS011;744;51.436;7.356;2023-04-01T15:07:55;2.60;;;2.40;;
1505;SDS011;744;51.436;7.356;2023-04-01T15:22:12;3.00;;;2.60;;
1505;SDS011;744;51.436;7.356;2023-04-01T15:25:14;3.30;;;2.70;;
1505;SDS011;744;51.436;7.356;2023-04-01T15:34:03;5.23;;;4.70;;
1505;SDS011;744;51.436;7.356;2023-04-01T15:36:57;5.27;;;4.77;;
1505;SDS011;744;51.436;7.356;2023-04-01T15:45:55;5.07;;;4.67;;
1505;SDS011;744;51.436;7.356;2023-04-01T15:48:35;6.37;;;5.77;;
1505;SDS011;744;51.436;7.356;2023-04-01T15:51:25;6.80;;;6.20;;
1505;SDS011;744;51.436;7.356;2023-04-01T16:00:00;6.53;;;5.27;;
1505;SDS011;744;51.436;7.356;2023-04-01T16:13:35;6.50;;;5.57;;
1505;SDS011;744;51.436;7.356;2023-04-01T16:28:27;5.47;;;4.97;;
1505;SDS011;744;51.436;7.356;2023-04-01T16:31:10;5.97;;;5.37;;
1505;SDS011;744;51.436;7.356;2023-04-01T16:36:50;6.37;;;4.67;;
1505;SDS011;744;51.436;7.356;2023-04-01T16:44:57;5.33;;;4.83;;
1505;SDS011;744;51.436;7.356;2023-04-01T16:47:36;4.87;;;4.47;;
1505;SDS011;744;51.436;7.356;2023-04-01T16:50:20;4.60;;;4.20;;
1505;SDS011;744;51.436;7.356;2023-04-01T16:56:04;4.03;;;3.70;;
1505;SDS011;744;51.436;7.356;2023-04-01T17:01:09;4.07;;;3.67;;
1505;SDS011;744;51.436;7.356;2023-04-01T17:03:43;3.70;;;3.50;;
1505;SDS011;744;51.436;7.356;2023-04-01T17:11:26;6.53;;;3.57;;
1505;SDS011;744;51.436;7.356;2023-04-01T17:17:16;4.90;;;3.80;;
1505;SDS011;744;51.436;7.356;2023-04-01T17:22:27;4.33;;;4.00;;
1505;SDS011;744;51.436;7.356;2023-04-01T17:25:01;4.10;;;3.50;;
1505;SDS011;744;51.436;7.356;2023-04-01T17:35:54;6.67;;;4.70;;
1505;SDS011;744;51.436;7.356;2023-04-01T17:44:28;5.00;;;4.40;;
1505;SDS011;744;51.436;7.356;2023-04-01T17:47:04;5.23;;;4.73;;
1505;SDS011;744;51.436;7.356;2023-04-01T17:53:24;5.23;;;4.60;;
1505;SDS011;744;51.436;7.356;2023-04-01T18:01:21;4.93;;;4.53;;
1505;SDS011;744;51.436;7.356;2023-04-01T18:09:38;5.40;;;4.70;;
1505;SDS011;744;51.436;7.356;2023-04-01T18:12:21;5.47;;;5.07;;
1505;SDS011;744;51.436;7.356;2023-04-01T18:21:00;5.60;;;5.10;;
1505;SDS011;744;51.436;7.356;2023-04-01T18:23:37;6.97;;;4.63;;
1505;SDS011;744;51.436;7.356;2023-04-01T18:26:26;5.30;;;4.80;;
1505;SDS011;744;51.436;7.356;2023-04-01T18:31:44;5.27;;;4.87;;
1505;SDS011;744;51.436;7.356;2023-04-01T18:34:32;5.43;;;4.93;;
1505;SDS011;744;51.436;7.356;2023-04-01T18:37:28;5.87;;;5.17;;
1505;SDS011;744;51.436;7.356;2023-04-01T18:40:10;5.90;;;5.30;;
1505;SDS011;744;51.436;7.356;2023-04-01T18:42:46;5.43;;;4.93;;
1505;SDS011;744;51.436;7.356;2023-04-01T18:56:09;7.87;;;6.33;;
1505;SDS011;744;51.436;7.356;2023-04-01T19:04:26;6.10;;;5.67;;
1505;SDS011;744;51.436;7.356;2023-04-01T19:19:02;6.67;;;6.00;;
1505;SDS011;744;51.436;7.356;2023-04-01T19:21:41;6.73;;;6.10;;
1505;SDS011;744;51.436;7.356;2023-04-01T19:24:20;7.40;;;5.40;;
1505;SDS011;744;51.436;7.356;2023-04-01T19:27:11;6.40;;;5.73;;
1505;SDS011;744;51.436;7.356;2023-04-01T19:35:49;6.73;;;6.13;;
1505;SDS011;744;51.436;7.356;2023-04-01T19:42:03;6.17;;;5.57;;
1505;SDS011;744;51.436;7.356;2023-04-01T19:53:13;3.80;;;3.50;;
1505;SDS011;744;51.436;7.356;2023-04-01T19:56:06;4.00;;;3.60;;
1505;SDS011;744;51.436;7.356;2023-04-01T19:58:36;4.00;;;3.70;;
1505;SDS011;744;51.436;7.356;2023-04-01T20:04:45;4.57;;;3.53;;
1505;SDS011;744;51.436;7.356;2023-04-01T20:07:37;4.10;;;3.70;;
1505;SDS011;744;51.436;7.356;2023-04-01T20:10:17;5.30;;;4.80;;
1505;SDS011;744;51.436;7.356;2023-04-01T20:13:18;4.07;;;3.67;;
1505;SDS011;744;51.436;7.356;2023-04-01T20:15:58;4.83;;;3.80;;
1505;SDS011;744;51.436;7.356;2023-04-01T20:26:44;3.60;;;3.27;;
1505;SDS011;744;51.436;7.356;2023-04-01T20:35:19;4.77;;;4.37;;
1505;SDS011;744;51.436;7.356;2023-04-01T20:37:50;4.53;;;4.13;;
1505;SDS011;744;51.436;7.356;2023-04-01T20:40:33;4.70;;;4.30;;
1505;SDS011;744;51.436;7.356;2023-04-01T20:43:14;4.37;;;3.97;;
1505;SDS011;744;51.436;7.356;2023-04-01T20:46:20;5.30;;;3.47;;
1505;SDS011;744;51.436;7.356;2023-04-01T20:48:56;3.70;;;3.50;;
1505;SDS011;744;51.436;7.356;2023-04-01T20:51:39;4.07;;;3.77;;
1505;SDS011;744;51.436;7.356;2023-04-01T20:57:20;3.27;;;2.37;;
1505;SDS011;744;51.436;7.356;2023-04-01T21:03:25;2.17;;;2.03;;
1505;SDS011;744;51.436;7.356;2023-04-01T21:06:26;2.20;;;1.97;;
1505;SDS011;744;51.436;7.356;2023-04-01T21:15:09;1.90;;;1.80;;
1505;SDS011;744;51.436;7.356;2023-04-01T21:18:02;1.90;;;1.80;;
1505;SDS011;744;51.436;7.356;2023-04-01T21:20:43;1.93;;;1.83;;
1505;SDS011;744;51.436;7.356;2023-04-01T21:48:14;2.27;;;2.17;;
1505;SDS011;744;51.436;7.356;2023-04-01T21:57:05;2.50;;;2.40;;
1505;SDS011;744;51.436;7.356;2023-04-01T22:03:03;2.17;;;2.07;;
1505;SDS011;744;51.436;7.356;2023-04-01T22:05:51;2.10;;;2.00;;
1505;SDS011;744;51.436;7.356;2023-04-01T22:16:36;2.00;;;1.90;;
1505;SDS011;744;51.436;7.356;2023-04-01T22:19:19;1.60;;;1.47;;
1505;SDS011;744;51.436;7.356;2023-04-01T22:22:01;1.60;;;1.50;;
1505;SDS011;744;51.436;7.356;2023-04-01T22:30:22;1.40;;;1.30;;
1505;SDS011;744;51.436;7.356;2023-04-01T22:33:06;1.50;;;1.40;;
1505;SDS011;744;51.436;7.356;2023-04-01T22:36:40;1.40;;;1.30;;
1505;SDS011;744;51.436;7.356;2023-04-01T22:39:04;4.83;;;1.70;;
1505;SDS011;744;51.436;7.356;2023-04-01T22:42:00;2.23;;;1.87;;
1505;SDS011;744;51.436;7.356;2023-04-01T22:52:40;1.83;;;1.73;;
1505;SDS011;744;51.436;7.356;2023-04-01T22:55:17;1.37;;;1.27;;
1505;SDS011;744;51.436;7.356;2023-04-01T22:57:50;1.50;;;1.40;;
1505;SDS011;744;51.436;7.356;2023-04-01T23:00:25;2.03;;;1.93;;
1505;SDS011;744;51.436;7.356;2023-04-01T23:06:01;1.70;;;1.60;;
1505;SDS011;744;51.436;7.356;2023-04-01T23:11:33;2.30;;;2.17;;
1505;SDS011;744;51.436;7.356;2023-04-01T23:16:45;2.03;;;1.93;;
1505;SDS011;744;51.436;7.356;2023-04-01T23:21:49;4.03;;;2.27;;
1505;SDS011;744;51.436;7.356;2023-04-01T23:27:21;2.30;;;2.20;;
1505;SDS011;744;51.436;7.356;2023-04-01T23:29:55;1.87;;;1.77;;
1505;SDS011;744;51.436;7.356;2023-04-01T23:32:22;1.80;;;1.70;;
1505;SDS011;744;51.436;7.356;2023-04-01T23:34:53;2.17;;;1.70;;
1505;SDS011;744;51.436;7.356;2023-04-01T23:37:23;1.53;;;1.43;;
1505;SDS011;744;51.436;7.356;2023-04-01T23:39:54;1.83;;;1.73;;
1505;SDS011;744;51.436;7.356;2023-04-01T23:45:01;1.60;;;1.50;;
1505;SDS011;744;51.436;7.356;2023-04-01T23:47:35;2.20;;;2.10;;
1505;SDS011;744;51.436;7.356;2023-04-01T23:52:43;1.70;;;1.60;;
1505;SDS011;744;51.436;7.356;2023-04-01T23:55:30;1.77;;;1.67;;
